This is the latest recevied weather packets stored in our database for station/object OH2HCY. If no packets are shown the sender has not sent any weather packets the latest 10 day(s).
| Time | Temp. | Humidity | Pressure | Rain* | Wind** | Luminosity | Snow |
|---|---|---|---|---|---|---|---|
| 1778018550 | 3.33° C | 60% | 1007.7 hPa | - | - | - | - |
| 1778018020 | 3.33° C | 60% | 1007.7 hPa | - | - | - | - |
| 1778017490 | 3.89° C | 59% | 1007.5 hPa | - | - | - | - |
| 1778016931 | 3.89° C | 58% | 1007.4 hPa | - | - | - | - |
| 1778016400 | 3.89° C | 58% | 1007.3 hPa | - | - | - | - |
| 1778015890 | 3.89° C | 58% | 1007.3 hPa | - | - | - | - |
| 1778015355 | 3.89° C | 57% | 1007.2 hPa | - | - | - | - |
| 1778014807 | 4.44° C | 56% | 1007 hPa | - | - | - | - |
| 1778014270 | 4.44° C | 55% | 1006.9 hPa | - | - | - | - |
| 1778013716 | 5° C | 54% | 1006.6 hPa | - | - | - | - |
| 1778013205 | 5° C | 54% | 1006.4 hPa | - | - | - | - |
| 1778012674 | 5° C | 53% | 1006.3 hPa | - | - | - | - |
| 1778012120 | 5° C | 53% | 1006.2 hPa | - | - | - | - |
| 1778011575 | 5° C | 52% | 1006.1 hPa | - | - | - | - |
| 1778011025 | 5.56° C | 51% | 1005.9 hPa | - | - | - | - |
| 1778010480 | 5.56° C | 50% | 1005.7 hPa | - | - | - | - |
| 1778009970 | 6.11° C | 50% | 1005.6 hPa | - | - | - | - |
| 1778009420 | 6.11° C | 49% | 1005.5 hPa | - | - | - | - |
| 1778008880 | 6.11° C | 48% | 1005.4 hPa | - | - | - | - |
| 1778008339 | 6.11° C | 47% | 1005.2 hPa | - | - | - | - |
| 1778007782 | 6.67° C | 46% | 1005 hPa | - | - | - | - |
| 1778007260 | 6.67° C | 45% | 1004.9 hPa | - | - | - | - |
| 1778006760 | 6.67° C | 45% | 1004.8 hPa | - | - | - | - |
| 1778006225 | 7.22° C | 44% | 1004.6 hPa | - | - | - | - |
| 1778005695 | 7.22° C | 43% | 1004.4 hPa | - | - | - | - |
* Rain since midnight (hover to see other rain measurements)
** Current wind speed in m/s (hover to see current wind gust speed)